KCMI/CMI METAR and TAF weather

Enter ICAO airport designator
Station Type Date Time Source
KCMI METAR 2021/09/23 23:53 UTC NOAA

KCMI 232353Z 28004KT 10SM CLR 16/04 A2999 RMK AO2 SLP157 T01560039 10211 20156 53005


Station Type Date Time Source
KCMI Decoded METAR 2021/09/23 23:53 UTC NOAA

UNIV OF ILLINOIS-WILLARD, IL, United States (KCMI) 40-02N 088-16W 228M
Sep 23, 2021 - 07:53 PM EDT / 2021.09.23 2353 UTC
Wind: from the W (280 degrees) at 5 MPH (4 KT):0
Visibility: 10 mile(s):0
Sky conditions: clear
Temperature: 60.1 F (15.6 C)
Dew Point: 39.0 F (3.9 C)
Relative Humidity: 45%
Pressure (altimeter): 29.99 in. Hg (1015 hPa)
Pressure tendency: 0.01 inches (0.5 hPa) higher than three hours ago
ob: KCMI 232353Z 28004KT 10SM CLR 16/04 A2999 RMK AO2 SLP157 T01560039 10211 20156 53005
cycle: 0

Station Type Date Time Source
KCMI TAF 2021/09/24 00:30 UTC NOAA

TAF
AMD KCMI 240028Z 2400/2424 28004KT P6SM SKC
FM241000 21006KT P6SM SKC
FM241600 20014G20KT P6SM FEW250

Example: see airport list